Time;durP1;ratioP1;P1;durP2;ratioP2;P2;SDS_P1;SDS_P2;PMS_P1;PMS_P2;Temp;Humidity;BMP_temperature;BMP_pressure;BME280_temperature;BME280_humidity;BME280_pressure;Samples;Min_cycle;Max_cycle;Signal;HPM_P1;HPM_P2
2022/04/21 00:00:11;;;;;;;4.12;3.72;;;6.30;99.90;;;;;;479283;246;27527;-67
2022/04/21 00:02:12;;;;;;;3.80;3.50;;;6.20;99.90;;;;;;479263;246;27503;-68
2022/04/21 00:04:13;;;;;;;3.58;3.30;;;6.20;99.90;;;;;;479268;246;27527;-68
2022/04/21 00:06:14;;;;;;;4.10;3.80;;;6.10;99.90;;;;;;479214;246;27502;-65
2022/04/21 00:08:17;;;;;;;3.58;3.37;;;6.20;99.90;;;;;;479238;247;28120;-68
2022/04/21 00:10:17;;;;;;;3.70;3.40;;;6.20;99.90;;;;;;479238;246;27967;-66
2022/04/21 00:12:18;;;;;;;3.40;3.20;;;6.00;99.90;;;;;;479266;246;27503;-65
2022/04/21 00:14:19;;;;;;;3.33;3.10;;;5.90;99.90;;;;;;479274;247;27538;-66
2022/04/21 00:16:21;;;;;;;4.22;3.00;;;5.90;99.90;;;;;;479272;246;27552;-67
2022/04/21 00:18:22;;;;;;;3.17;2.97;;;5.90;99.90;;;;;;479291;245;27510;-67
2022/04/21 00:20:23;;;;;;;3.40;3.20;;;6.00;99.90;;;;;;479248;247;27609;-66
2022/04/21 00:24:44;;;;;;;3.50;3.17;;;6.00;99.90;;;;;;479275;247;28049;-65
2022/04/21 00:26:45;;;;;;;3.80;3.50;;;6.00;99.90;;;;;;479251;247;28073;-66
2022/04/21 00:28:47;;;;;;;4.43;4.03;;;5.90;99.90;;;;;;479282;247;27610;-65
2022/04/21 00:30:48;;;;;;;4.37;3.97;;;5.90;99.90;;;;;;479268;248;27531;-66
2022/04/21 00:32:49;;;;;;;4.85;4.45;;;5.90;99.90;;;;;;479291;246;27537;-70
2022/04/21 00:34:50;;;;;;;4.70;4.30;;;5.90;99.90;;;;;;479204;248;27495;-65
2022/04/21 00:36:52;;;;;;;5.18;4.68;;;5.90;99.90;;;;;;479268;246;27527;-65
2022/04/21 00:38:53;;;;;;;4.80;4.25;;;5.90;99.90;;;;;;479271;245;28052;-65
2022/04/21 00:40:54;;;;;;;4.90;4.50;;;6.00;99.90;;;;;;479261;246;27977;-65
2022/04/21 00:42:55;;;;;;;6.30;4.65;;;6.10;99.90;;;;;;479235;246;27608;-69
2022/04/21 00:44:57;;;;;;;4.50;4.07;;;6.10;99.90;;;;;;479276;247;27541;-65
2022/04/21 00:46:58;;;;;;;4.45;4.03;;;6.10;99.90;;;;;;479245;246;27536;-66
2022/04/21 00:48:59;;;;;;;4.00;3.70;;;6.10;99.90;;;;;;479276;246;27562;-65
2022/04/21 00:51:00;;;;;;;4.18;3.87;;;6.10;99.90;;;;;;479191;246;28011;-67
2022/04/21 00:53:02;;;;;;;4.15;3.85;;;6.00;99.90;;;;;;479228;246;28082;-70
2022/04/21 00:55:03;;;;;;;4.00;3.70;;;6.00;99.90;;;;;;479268;246;27479;-65
2022/04/21 00:57:04;;;;;;;4.03;3.72;;;6.00;99.90;;;;;;479277;246;27510;-67
2022/04/21 00:59:06;;;;;;;3.95;3.65;;;6.00;99.90;;;;;;479253;246;27477;-67
2022/04/21 01:02:46;;;;;;;3.65;3.35;;;6.00;99.90;;;;;;479125;247;27543;-65
2022/04/21 01:03:08;;;;;;;3.60;3.30;;;6.00;99.90;;;;;;477734;247;27601;-70
2022/04/21 01:05:09;;;;;;;4.25;3.67;;;6.10;99.90;;;;;;479030;246;27919;-65
2022/04/21 01:07:10;;;;;;;3.22;3.03;;;6.10;99.90;;;;;;479035;246;28107;-65
2022/04/21 01:09:12;;;;;;;4.15;3.85;;;6.10;99.90;;;;;;479240;246;27782;-65
2022/04/21 01:11:13;;;;;;;3.85;3.55;;;6.20;99.90;;;;;;479256;247;27501;-68
2022/04/21 01:13:14;;;;;;;3.67;3.37;;;6.30;99.90;;;;;;479272;247;27627;-68
2022/04/21 01:15:16;;;;;;;4.00;3.60;;;6.30;99.90;;;;;;479301;246;27503;-65
2022/04/21 01:17:17;;;;;;;3.87;3.58;;;6.20;99.90;;;;;;479287;247;27548;-66
2022/04/21 01:19:18;;;;;;;4.70;4.30;;;6.20;99.90;;;;;;479252;246;28820;-67
2022/04/21 01:21:19;;;;;;;4.60;4.30;;;5.90;99.90;;;;;;479268;247;27953;-66
2022/04/21 01:23:21;;;;;;;4.53;4.22;;;5.70;99.90;;;;;;479278;247;27609;-68
2022/04/21 01:25:22;;;;;;;4.00;3.70;;;5.60;99.90;;;;;;479231;245;27572;-66
2022/04/21 01:27:23;;;;;;;4.53;4.12;;;5.40;99.90;;;;;;479245;248;27530;-66
2022/04/21 01:29:24;;;;;;;4.60;4.30;;;5.10;99.90;;;;;;479225;247;27978;-69
2022/04/21 01:31:26;;;;;;;4.40;4.10;;;4.90;99.90;;;;;;479264;246;27509;-66
2022/04/21 01:33:27;;;;;;;4.43;4.15;;;4.70;99.90;;;;;;479263;246;28167;-66
2022/04/21 01:35:28;;;;;;;3.85;3.65;;;4.60;99.90;;;;;;479270;246;28017;-65
2022/04/21 01:42:08;;;;;;;4.50;4.10;;;4.70;99.90;;;;;;479245;248;27501;-66
2022/04/21 01:44:10;;;;;;;4.30;3.90;;;4.80;99.90;;;;;;479274;246;27531;-66
2022/04/21 01:46:11;;;;;;;4.03;3.78;;;4.70;99.90;;;;;;479198;246;27540;-65
2022/04/21 01:48:12;;;;;;;4.40;4.10;;;4.60;99.90;;;;;;479242;246;27567;-66
2022/04/21 01:50:13;;;;;;;4.35;3.95;;;4.50;99.90;;;;;;479228;246;27603;-66
2022/04/21 01:52:15;;;;;;;4.60;4.30;;;4.30;99.90;;;;;;479172;248;27495;-65
2022/04/21 01:54:16;;;;;;;4.12;3.83;;;4.30;99.90;;;;;;479232;248;28169;-65
2022/04/21 01:56:17;;;;;;;3.87;3.67;;;4.20;99.90;;;;;;479198;247;28219;-65
2022/04/21 01:58:18;;;;;;;4.10;3.80;;;4.20;99.90;;;;;;479244;247;28032;-66
2022/04/21 02:00:20;;;;;;;3.97;3.78;;;4.00;99.90;;;;;;479199;248;27515;-67
2022/04/21 02:02:21;;;;;;;3.65;3.45;;;4.00;99.90;;;;;;479219;246;27611;-66
2022/04/21 02:04:22;;;;;;;3.40;3.20;;;4.00;99.90;;;;;;479204;247;27529;-66
2022/04/21 02:06:23;;;;;;;3.80;3.50;;;4.10;99.90;;;;;;479215;245;27548;-65
2022/04/21 02:08:26;;;;;;;3.72;3.53;;;4.20;99.90;;;;;;479250;246;27522;-66
2022/04/21 02:10:26;;;;;;;3.95;3.65;;;4.30;99.90;;;;;;479185;248;27519;-67
2022/04/21 02:12:30;;;;;;;3.83;3.55;;;4.30;99.90;;;;;;479219;246;27534;-66
2022/04/21 02:14:28;;;;;;;3.50;3.30;;;4.40;99.90;;;;;;478939;247;28039;-67
2022/04/21 02:16:30;;;;;;;3.75;3.35;;;4.40;99.90;;;;;;479236;244;28009;-72
2022/04/21 02:18:31;;;;;;;3.53;3.33;;;4.30;99.90;;;;;;479229;246;28047;-65
2022/04/21 02:20:32;;;;;;;3.50;3.35;;;4.10;99.90;;;;;;479233;246;27514;-67
2022/04/21 02:22:37;;;;;;;3.15;2.95;;;4.10;99.90;;;;;;479235;246;27608;-66
2022/04/21 02:24:35;;;;;;;3.45;3.25;;;4.20;99.90;;;;;;478925;247;27523;-65
2022/04/21 02:26:36;;;;;;;3.58;3.37;;;4.30;99.90;;;;;;479224;246;27649;-69
2022/04/21 02:28:38;;;;;;;3.53;3.30;;;4.40;99.90;;;;;;479253;247;27543;-66
2022/04/21 02:30:38;;;;;;;3.65;3.45;;;4.40;99.90;;;;;;479185;247;27529;-67
2022/04/21 02:32:40;;;;;;;3.30;3.10;;;4.40;99.90;;;;;;479233;246;27508;-65
2022/04/21 02:34:41;;;;;;;2.85;2.70;;;4.40;99.90;;;;;;479234;245;28002;-65
2022/04/21 02:36:42;;;;;;;3.20;3.00;;;4.50;99.90;;;;;;479224;247;27987;-68
2022/04/21 02:38:43;;;;;;;2.97;2.83;;;4.50;99.90;;;;;;479232;246;27953;-66
2022/04/21 02:40:45;;;;;;;3.00;2.80;;;4.50;99.90;;;;;;479231;247;27524;-67
2022/04/21 02:42:46;;;;;;;2.90;2.80;;;4.60;99.90;;;;;;479134;247;27484;-66
2022/04/21 02:44:47;;;;;;;3.25;3.05;;;4.70;99.90;;;;;;479197;246;27536;-65
2022/04/21 02:46:48;;;;;;;3.08;2.87;;;4.70;99.90;;;;;;479233;246;27519;-68
2022/04/21 02:48:50;;;;;;;3.37;3.17;;;4.60;99.90;;;;;;479236;247;27610;-66
2022/04/21 02:50:51;;;;;;;3.55;3.35;;;4.60;99.90;;;;;;479255;248;27526;-66
2022/04/21 02:52:52;;;;;;;3.40;3.20;;;4.60;99.90;;;;;;479238;247;27496;-65
2022/04/21 02:57:22;;;;;;;3.85;3.60;;;4.50;99.90;;;;;;479217;247;27522;-68
2022/04/21 02:59:23;;;;;;;3.50;3.30;;;4.40;99.90;;;;;;479236;245;27533;-68
2022/04/21 03:01:24;;;;;;;2.85;2.65;;;4.30;99.90;;;;;;479226;247;28020;-65
2022/04/21 03:03:25;;;;;;;3.30;3.10;;;4.30;99.90;;;;;;479231;247;28077;-65
2022/04/21 03:05:27;;;;;;;3.12;2.92;;;4.20;99.90;;;;;;479234;247;27960;-65
2022/04/21 03:07:28;;;;;;;3.70;3.37;;;4.30;99.90;;;;;;479216;247;27488;-65
2022/04/21 03:09:29;;;;;;;2.92;2.83;;;4.40;99.90;;;;;;479273;246;27637;-68
2022/04/21 03:11:31;;;;;;;3.80;3.60;;;4.50;99.90;;;;;;479265;246;27576;-65
2022/04/21 03:13:32;;;;;;;3.05;2.92;;;4.50;99.90;;;;;;479234;246;27633;-67
2022/04/21 03:15:33;;;;;;;3.70;3.40;;;4.50;99.90;;;;;;479228;248;27601;-65
2022/04/21 03:17:34;;;;;;;3.67;3.47;;;4.60;99.90;;;;;;479271;247;27500;-65
2022/04/21 03:19:35;;;;;;;3.42;3.22;;;4.60;99.90;;;;;;479266;246;27542;-66
2022/04/21 03:26:17;;;;;;;3.50;3.30;;;4.50;99.90;;;;;;479240;246;28088;-66
2022/04/21 03:28:17;;;;;;;3.80;3.60;;;4.60;99.90;;;;;;479197;247;28006;-66
2022/04/21 03:30:18;;;;;;;3.40;3.20;;;4.60;99.90;;;;;;479239;246;27627;-65
2022/04/21 03:32:19;;;;;;;3.00;2.90;;;4.70;99.90;;;;;;479273;246;27542;-66
2022/04/21 03:34:21;;;;;;;2.70;2.60;;;4.80;99.90;;;;;;479268;247;27489;-65
2022/04/21 03:36:22;;;;;;;2.80;2.65;;;4.80;99.90;;;;;;479216;246;27607;-67
2022/04/21 03:38:24;;;;;;;3.90;3.65;;;4.90;99.90;;;;;;479207;246;27579;-65
2022/04/21 03:40:24;;;;;;;3.60;3.40;;;4.90;99.90;;;;;;479224;246;27524;-66
2022/04/21 03:42:31;;;;;;;3.97;3.67;;;4.90;99.90;;;;;;479260;246;27485;-66
2022/04/21 03:44:27;;;;;;;4.10;3.83;;;4.80;99.90;;;;;;478799;248;28072;-66
2022/04/21 03:46:28;;;;;;;3.90;3.60;;;4.70;99.90;;;;;;479215;246;28016;-68
2022/04/21 03:48:29;;;;;;;4.00;3.62;;;4.70;99.90;;;;;;479259;248;27519;-65
2022/04/21 03:50:31;;;;;;;3.72;3.42;;;4.70;99.90;;;;;;479199;247;27649;-66
2022/04/21 03:52:32;;;;;;;3.58;3.28;;;4.70;99.90;;;;;;479188;248;27556;-65
2022/04/21 03:54:33;;;;;;;3.50;3.30;;;4.70;99.90;;;;;;479267;247;27476;-65
2022/04/21 03:56:35;;;;;;;3.75;3.45;;;4.80;99.90;;;;;;479236;246;27527;-66
2022/04/21 03:58:36;;;;;;;4.32;3.67;;;4.80;99.90;;;;;;479251;248;27482;-65
2022/04/21 04:00:37;;;;;;;4.28;3.97;;;4.90;99.90;;;;;;479176;246;27539;-66
2022/04/21 04:02:38;;;;;;;3.70;3.47;;;4.90;99.90;;;;;;479235;246;28448;-70
2022/04/21 04:04:40;;;;;;;4.12;3.83;;;5.00;99.90;;;;;;479253;246;27978;-66
2022/04/21 04:11:04;;;;;;;3.37;3.17;;;5.10;99.90;;;;;;468651;247;27884;-66
2022/04/21 04:13:06;;;;;;;3.78;3.47;;;5.00;99.90;;;;;;479272;246;27573;-65
2022/04/21 04:15:07;;;;;;;4.30;4.00;;;5.00;99.90;;;;;;479278;246;28106;-67
2022/04/21 04:17:08;;;;;;;5.03;3.67;;;4.70;99.90;;;;;;479258;247;27993;-66
2022/04/21 04:19:10;;;;;;;3.95;3.75;;;4.40;99.90;;;;;;479261;246;27518;-66
2022/04/21 04:21:12;;;;;;;3.95;3.65;;;4.00;99.90;;;;;;479167;248;27550;-66
2022/04/21 04:23:13;;;;;;;3.60;3.28;;;3.70;99.90;;;;;;479181;247;27491;-66
2022/04/21 04:25:13;;;;;;;3.50;3.30;;;3.40;99.90;;;;;;479149;246;27536;-67
2022/04/21 04:27:15;;;;;;;3.72;3.53;;;3.40;99.90;;;;;;479271;247;27508;-65
2022/04/21 04:29:22;;;;;;;4.05;3.75;;;3.40;99.90;;;;;;479274;246;27598;-65
2022/04/21 04:31:17;;;;;;;3.67;3.47;;;3.40;99.90;;;;;;478892;248;28028;-70
2022/04/21 04:33:18;;;;;;;3.80;3.50;;;3.60;99.90;;;;;;479261;246;28105;-65
2022/04/21 04:35:19;;;;;;;3.50;3.20;;;3.70;99.90;;;;;;479253;246;28104;-67
2022/04/21 04:37:21;;;;;;;3.35;3.15;;;3.90;99.90;;;;;;479208;248;27510;-66
2022/04/21 04:39:22;;;;;;;3.50;3.30;;;4.00;99.90;;;;;;479242;248;27515;-65
2022/04/21 04:43:43;;;;;;;3.35;3.15;;;4.20;99.90;;;;;;479245;246;27482;-66
2022/04/21 04:48:04;;;;;;;3.30;3.10;;;4.40;99.90;;;;;;479229;246;27597;-67
2022/04/21 04:50:05;;;;;;;3.42;3.15;;;4.50;99.90;;;;;;479231;247;27471;-66
2022/04/21 04:52:06;;;;;;;3.00;2.80;;;4.50;99.90;;;;;;479276;246;27532;-66
2022/04/21 04:54:08;;;;;;;3.05;2.70;;;4.40;99.90;;;;;;479250;248;28137;-69
2022/04/21 04:56:09;;;;;;;3.00;2.80;;;4.40;99.90;;;;;;479250;246;28052;-66
2022/04/21 04:58:10;;;;;;;3.30;3.00;;;4.50;99.90;;;;;;479172;246;28042;-69
2022/04/21 05:00:11;;;;;;;3.47;3.20;;;4.50;99.90;;;;;;479249;247;27522;-66
2022/04/21 05:02:13;;;;;;;3.05;2.85;;;4.60;99.90;;;;;;479273;244;27519;-66
2022/04/21 05:04:14;;;;;;;4.10;3.53;;;4.60;99.90;;;;;;479235;245;27519;-66
2022/04/21 05:06:15;;;;;;;3.35;3.10;;;4.60;99.90;;;;;;479210;246;27492;-66
2022/04/21 05:08:16;;;;;;;4.28;3.97;;;4.70;99.90;;;;;;479229;247;27515;-67
2022/04/21 05:10:19;;;;;;;5.10;4.60;;;4.90;99.90;;;;;;479256;246;27520;-66
2022/04/21 05:12:19;;;;;;;6.57;4.65;;;5.00;99.90;;;;;;479162;247;28065;-66
2022/04/21 05:14:20;;;;;;;6.95;6.25;;;5.20;99.90;;;;;;479231;247;28101;-69
2022/04/21 05:16:21;;;;;;;6.25;5.75;;;5.30;99.90;;;;;;479260;247;27499;-66
2022/04/21 05:18:23;;;;;;;7.15;6.45;;;5.40;99.90;;;;;;479232;246;27552;-68
2022/04/21 05:20:24;;;;;;;7.35;6.60;;;5.50;99.90;;;;;;479207;246;27491;-66
2022/04/21 05:22:25;;;;;;;9.00;7.05;;;5.60;99.90;;;;;;479269;247;27524;-66
2022/04/21 05:24:26;;;;;;;6.22;5.62;;;5.60;99.90;;;;;;479251;248;27519;-70
2022/04/21 05:26:28;;;;;;;6.90;6.30;;;5.60;99.90;;;;;;479234;246;27553;-65
2022/04/21 05:28:30;;;;;;;7.35;6.60;;;5.70;99.90;;;;;;479260;246;28116;-67
2022/04/21 05:32:50;;;;;;;6.43;5.70;;;5.80;99.90;;;;;;479234;248;27487;-66
2022/04/21 05:34:51;;;;;;;7.50;6.72;;;5.90;99.90;;;;;;479168;247;27639;-69
2022/04/21 05:36:52;;;;;;;7.70;6.90;;;5.90;99.90;;;;;;479192;246;28073;-65
2022/04/21 05:38:54;;;;;;;8.30;7.40;;;6.00;99.90;;;;;;479228;246;28040;-66
2022/04/21 05:40:55;;;;;;;8.10;7.30;;;6.00;99.90;;;;;;479274;246;27542;-70
2022/04/21 05:42:56;;;;;;;7.97;6.90;;;6.00;99.90;;;;;;479446;246;27455;-66
2022/04/21 05:44:58;;;;;;;6.85;6.25;;;6.10;99.90;;;;;;474405;250;27621;-66
2022/04/21 05:46:59;;;;;;;6.90;6.22;;;6.10;99.90;;;;;;474398;248;28786;-66
2022/04/21 05:49:00;;;;;;;8.40;7.32;;;6.10;99.90;;;;;;474340;248;28128;-66
2022/04/21 05:51:01;;;;;;;7.97;6.85;;;6.20;99.90;;;;;;474364;248;28001;-67
2022/04/21 05:53:03;;;;;;;7.75;6.80;;;6.20;99.90;;;;;;474413;248;27521;-66
2022/04/21 05:55:04;;;;;;;7.90;7.07;;;6.30;99.90;;;;;;474409;248;27552;-67
2022/04/21 05:57:05;;;;;;;8.20;7.40;;;6.40;99.90;;;;;;474378;248;27562;-69
2022/04/21 05:59:07;;;;;;;7.40;6.75;;;6.40;99.90;;;;;;474441;248;27518;-68
2022/04/21 06:01:08;;;;;;;7.30;6.70;;;6.40;99.90;;;;;;474429;248;27562;-66
2022/04/21 06:03:11;;;;;;;9.23;8.23;;;6.50;99.90;;;;;;474426;248;27571;-66
2022/04/21 06:05:10;;;;;;;8.52;7.68;;;6.50;99.90;;;;;;474332;250;27987;-66
2022/04/21 06:07:12;;;;;;;9.80;8.80;;;6.60;99.90;;;;;;474413;248;28011;-67
2022/04/21 06:09:13;;;;;;;11.20;8.27;;;6.60;99.90;;;;;;474389;248;27506;-66
2022/04/21 06:11:14;;;;;;;8.33;7.53;;;6.60;99.90;;;;;;474431;250;28096;-66
2022/04/21 06:13:15;;;;;;;8.47;7.67;;;6.70;99.90;;;;;;474383;248;29632;-66
2022/04/21 06:15:17;;;;;;;8.33;7.53;;;6.70;99.90;;;;;;474450;248;28415;-65
2022/04/21 06:17:18;;;;;;;9.15;8.20;;;6.70;99.90;;;;;;475467;248;29270;-69
2022/04/21 06:19:19;;;;;;;8.43;7.63;;;6.80;99.90;;;;;;493471;241;27522;-66
2022/04/21 06:21:20;;;;;;;8.27;7.57;;;6.80;99.90;;;;;;493490;239;28407;-66
2022/04/21 06:23:22;;;;;;;9.65;7.97;;;6.80;99.90;;;;;;493494;239;28473;-66
2022/04/21 06:25:23;;;;;;;9.07;8.10;;;6.80;99.90;;;;;;493448;239;27358;-68
2022/04/21 06:27:24;;;;;;;9.15;8.05;;;6.80;99.90;;;;;;485905;239;28087;-71
2022/04/21 06:29:26;;;;;;;9.23;7.70;;;6.90;99.90;;;;;;486483;242;27439;-65
2022/04/21 06:31:27;;;;;;;8.50;7.70;;;6.90;99.90;;;;;;480004;242;28319;-67
2022/04/21 06:33:31;;;;;;;8.20;7.37;;;6.90;99.90;;;;;;486102;242;28849;-69
2022/04/21 06:35:32;;;;;;;9.43;8.27;;;7.00;99.90;;;;;;485416;242;27538;-67
2022/04/21 06:37:34;;;;;;;8.80;8.00;;;7.00;99.90;;;;;;477881;244;28058;-66
2022/04/21 06:39:35;;;;;;;9.27;8.37;;;7.00;99.90;;;;;;473955;246;27581;-68
2022/04/21 06:41:36;;;;;;;8.33;7.53;;;7.00;99.90;;;;;;476562;246;28512;-67
2022/04/21 06:48:17;;;;;;;9.60;8.57;;;7.10;99.90;;;;;;480362;246;28635;-68
2022/04/21 06:50:18;;;;;;;9.20;8.30;;;7.20;99.90;;;;;;475910;246;27932;-67
2022/04/21 06:52:19;;;;;;;9.03;8.23;;;7.20;99.90;;;;;;477153;246;27789;-75
2022/04/21 06:54:20;;;;;;;8.80;7.90;;;7.20;99.90;;;;;;479204;246;28967;-71
2022/04/21 06:56:22;;;;;;;9.40;8.50;;;7.20;99.90;;;;;;476693;246;28306;-66
2022/04/21 06:58:23;;;;;;;9.10;8.30;;;7.30;99.90;;;;;;475537;246;27980;-73
2022/04/21 07:00:26;;;;;;;8.83;8.07;;;7.40;99.90;;;;;;478449;246;28310;-69
2022/04/21 07:02:27;;;;;;;8.03;7.23;;;7.40;99.90;;;;;;480145;246;28189;-68
2022/04/21 07:04:28;;;;;;;7.87;6.70;;;7.60;99.90;;;;;;479277;246;28101;-69
2022/04/21 07:06:28;;;;;;;7.83;7.17;;;7.60;99.90;;;;;;476906;246;28434;-66
2022/04/21 07:08:29;;;;;;;8.00;7.20;;;7.60;99.90;;;;;;477902;246;28532;-67
2022/04/21 07:10:30;;;;;;;8.30;7.33;;;7.70;99.90;;;;;;477986;246;27920;-72
2022/04/21 07:12:32;;;;;;;7.67;6.97;;;7.80;99.90;;;;;;476354;246;27763;-68
2022/04/21 07:14:33;;;;;;;7.23;6.63;;;7.80;99.90;;;;;;479985;246;27949;-68
2022/04/21 07:16:34;;;;;;;7.37;6.70;;;7.90;99.90;;;;;;479141;246;28065;-68
2022/04/21 07:18:36;;;;;;;11.37;8.10;;;8.00;99.90;;;;;;479173;246;27712;-69
2022/04/21 07:20:37;;;;;;;8.93;7.60;;;8.00;99.90;;;;;;478522;246;27824;-69
2022/04/21 07:22:38;;;;;;;8.67;7.80;;;8.20;99.90;;;;;;476701;246;27878;-68
2022/04/21 07:24:39;;;;;;;6.80;6.20;;;8.30;99.90;;;;;;474752;246;27931;-70
2022/04/21 07:26:41;;;;;;;7.20;6.50;;;8.40;99.90;;;;;;479667;246;28041;-69
2022/04/21 07:28:44;;;;;;;8.10;7.30;;;8.50;99.90;;;;;;476680;246;27774;-68
2022/04/21 07:30:43;;;;;;;8.30;7.00;;;8.50;99.90;;;;;;477260;246;27786;-68
2022/04/21 07:32:44;;;;;;;7.93;6.97;;;8.60;99.90;;;;;;475777;246;27979;-68
2022/04/21 07:34:45;;;;;;;8.03;7.10;;;8.60;99.90;;;;;;479698;244;27984;-72
2022/04/21 07:36:47;;;;;;;8.67;6.90;;;8.60;99.90;;;;;;478915;246;27858;-67
2022/04/21 07:38:49;;;;;;;7.17;6.50;;;8.70;99.90;;;;;;478180;246;28496;-71
2022/04/21 07:40:53;;;;;;;7.33;6.67;;;8.80;99.90;;;;;;475148;246;29120;-68
2022/04/21 07:42:50;;;;;;;7.43;6.80;;;8.70;99.90;;;;;;478682;246;28301;-68
2022/04/21 07:44:52;;;;;;;8.00;7.20;;;8.70;99.90;;;;;;478852;246;28343;-71
2022/04/21 07:46:53;;;;;;;7.20;6.60;;;8.70;99.90;;;;;;474682;246;28487;-68
2022/04/21 07:51:14;;;;;;;8.20;7.37;;;8.90;99.90;;;;;;478537;246;27826;-67
2022/04/21 07:53:15;;;;;;;6.97;6.30;;;9.00;99.90;;;;;;475410;246;27811;-69
2022/04/21 07:55:17;;;;;;;6.80;6.20;;;9.20;99.90;;;;;;476792;246;27530;-70
2022/04/21 07:57:18;;;;;;;6.97;6.27;;;9.30;99.90;;;;;;476762;246;28306;-73
2022/04/21 07:59:20;;;;;;;7.17;6.57;;;9.30;99.90;;;;;;474699;246;27900;-68
2022/04/21 08:01:21;;;;;;;6.10;5.50;;;9.30;99.90;;;;;;481914;246;28458;-68
2022/04/21 08:03:22;;;;;;;6.53;6.03;;;9.50;99.90;;;;;;474096;246;27828;-68
2022/04/21 08:05:23;;;;;;;6.93;6.33;;;9.50;99.90;;;;;;473824;246;27732;-68
2022/04/21 08:07:24;;;;;;;7.20;6.47;;;9.50;99.90;;;;;;477765;246;28336;-71
2022/04/21 08:09:25;;;;;;;9.73;5.83;;;9.60;99.90;;;;;;477266;245;28321;-68
2022/04/21 08:11:26;;;;;;;6.13;5.63;;;9.70;99.90;;;;;;480847;244;28464;-68
2022/04/21 08:13:28;;;;;;;6.10;5.50;;;9.70;99.90;;;;;;480348;246;28825;-68
2022/04/21 08:15:29;;;;;;;6.90;6.30;;;9.70;99.90;;;;;;479334;245;28377;-73
2022/04/21 08:17:30;;;;;;;6.33;5.73;;;10.00;99.90;;;;;;476368;244;28406;-73
2022/04/21 08:19:31;;;;;;;6.17;5.70;;;10.00;99.90;;;;;;476317;244;28012;-69
2022/04/21 08:21:33;;;;;;;6.03;5.53;;;10.10;99.90;;;;;;479223;246;27615;-69
2022/04/21 08:23:34;;;;;;;6.20;5.70;;;10.20;99.90;;;;;;477913;246;28010;-69
2022/04/21 08:32:46;;;;;;;4.80;4.40;;;10.20;99.90;;;;;;481580;246;27916;-70
2022/04/21 08:34:47;;;;;;;5.17;4.67;;;10.40;99.90;;;;;;475451;246;28022;-69
2022/04/21 08:36:48;;;;;;;6.90;4.87;;;10.60;99.90;;;;;;479729;246;27936;-71
2022/04/21 08:38:49;;;;;;;5.33;4.90;;;10.60;99.90;;;;;;475710;246;28036;-70
2022/04/21 08:40:51;;;;;;;4.47;4.07;;;10.70;99.90;;;;;;476692;246;27925;-68
2022/04/21 08:42:52;;;;;;;4.97;4.33;;;10.80;99.90;;;;;;476142;246;28451;-67
2022/04/21 08:44:53;;;;;;;5.17;4.77;;;10.80;99.90;;;;;;477149;246;28330;-72
2022/04/21 08:46:54;;;;;;;4.80;4.40;;;10.60;99.90;;;;;;475669;246;28313;-67
2022/04/21 08:48:55;;;;;;;4.67;4.27;;;10.90;99.90;;;;;;478044;244;27978;-67
2022/04/21 08:50:57;;;;;;;4.20;3.90;;;10.90;99.90;;;;;;474835;244;27978;-70
2022/04/21 08:52:59;;;;;;;5.07;4.07;;;11.00;99.90;;;;;;478207;246;27861;-68
2022/04/21 08:54:59;;;;;;;4.00;3.70;;;11.00;99.90;;;;;;475138;246;28047;-70
2022/04/21 08:57:00;;;;;;;4.37;3.97;;;11.20;99.90;;;;;;478879;246;28081;-71
2022/04/21 08:59:02;;;;;;;4.67;4.27;;;11.00;99.90;;;;;;480345;246;28041;-67
2022/04/21 09:01:03;;;;;;;4.50;4.10;;;11.00;99.90;;;;;;478430;246;27967;-70
2022/04/21 09:03:04;;;;;;;3.70;3.40;;;11.00;99.90;;;;;;476661;246;28150;-68
2022/04/21 09:05:05;;;;;;;3.77;2.90;;;11.40;99.90;;;;;;477241;246;28577;-69
2022/04/21 09:07:07;;;;;;;3.10;2.90;;;11.80;99.90;;;;;;474374;246;28288;-68
2022/04/21 09:09:08;;;;;;;3.53;3.00;;;11.80;99.90;;;;;;473437;246;28131;-70
2022/04/21 09:11:09;;;;;;;3.17;2.97;;;11.80;99.90;;;;;;478782;246;28359;-69
2022/04/21 09:13:10;;;;;;;3.50;3.20;;;11.60;99.90;;;;;;477381;246;28193;-71
2022/04/21 09:15:12;;;;;;;3.87;2.80;;;11.70;99.90;;;;;;481719;246;28436;-68
2022/04/21 09:17:13;;;;;;;3.17;2.93;;;11.90;99.90;;;;;;476749;246;28008;-70
2022/04/21 09:19:14;;;;;;;3.37;3.07;;;11.80;99.90;;;;;;476184;246;28464;-70
2022/04/21 09:21:15;;;;;;;4.20;3.10;;;11.90;99.90;;;;;;475903;245;28817;-70
2022/04/21 09:23:17;;;;;;;3.00;2.77;;;11.90;99.90;;;;;;481596;246;28736;-69
2022/04/21 09:25:18;;;;;;;3.00;2.80;;;12.10;99.90;;;;;;479283;246;28833;-72
2022/04/21 09:27:19;;;;;;;2.90;2.70;;;12.30;99.90;;;;;;477130;246;28670;-69
2022/04/21 09:29:20;;;;;;;2.80;2.35;;;12.50;99.90;;;;;;475853;246;35971;-71
2022/04/21 09:31:22;;;;;;;3.27;3.00;;;12.70;99.90;;;;;;478849;244;27434;-71
2022/04/21 09:33:23;;;;;;;2.63;2.43;;;12.80;99.90;;;;;;478608;246;28298;-70
2022/04/21 09:35:26;;;;;;;2.67;2.50;;;13.00;99.90;;;;;;475306;246;28408;-72
2022/04/21 09:37:26;;;;;;;2.70;2.50;;;13.10;99.90;;;;;;472834;245;29723;-73
2022/04/21 09:39:27;;;;;;;2.90;2.60;;;13.30;99.90;;;;;;477220;246;29305;-69
2022/04/21 09:41:28;;;;;;;2.77;2.57;;;13.20;99.90;;;;;;472357;246;29247;-70
2022/04/21 09:43:29;;;;;;;3.47;2.77;;;13.30;99.90;;;;;;477534;246;29161;-70
2022/04/21 09:47:50;;;;;;;3.63;3.30;;;13.20;99.90;;;;;;478445;246;29401;-69
2022/04/21 09:49:52;;;;;;;3.13;2.93;;;12.80;99.90;;;;;;477894;246;30007;-69
2022/04/21 09:51:53;;;;;;;3.07;2.77;;;12.60;99.90;;;;;;473917;244;29257;-70
2022/04/21 09:53:55;;;;;;;3.93;3.20;;;12.40;99.90;;;;;;476599;246;28419;-72
2022/04/21 09:55:55;;;;;;;3.53;3.23;;;12.40;99.90;;;;;;481375;246;28529;-69
2022/04/21 09:57:57;;;;;;;4.93;3.00;;;12.60;99.90;;;;;;477942;246;28303;-69
2022/04/21 09:59:58;;;;;;;3.73;3.43;;;12.00;99.90;;;;;;480665;246;28289;-68
2022/04/21 10:02:00;;;;;;;4.30;3.80;;;11.90;99.90;;;;;;478204;245;28188;-69
2022/04/21 10:04:00;;;;;;;4.63;3.90;;;11.70;99.90;;;;;;474292;246;28881;-70
2022/04/21 10:06:02;;;;;;;5.10;4.40;;;11.60;99.90;;;;;;478559;246;28550;-70
2022/04/21 10:08:03;;;;;;;8.43;3.90;;;11.60;99.90;;;;;;473856;246;28776;-70
2022/04/21 10:10:04;;;;;;;4.00;3.63;;;11.70;99.90;;;;;;479975;244;28492;-71
2022/04/21 10:12:05;;;;;;;3.60;3.30;;;11.80;99.90;;;;;;478658;244;28975;-70
2022/04/21 10:14:07;;;;;;;4.40;4.00;;;12.00;99.90;;;;;;477575;246;30129;-70
2022/04/21 10:16:08;;;;;;;3.73;3.43;;;11.80;99.90;;;;;;477134;246;28800;-70
2022/04/21 10:18:09;;;;;;;4.10;3.70;;;11.90;99.90;;;;;;472455;246;28927;-69
2022/04/21 10:20:10;;;;;;;8.10;4.27;;;11.70;99.90;;;;;;473543;246;28449;-69
2022/04/21 10:22:12;;;;;;;4.07;3.47;;;11.70;99.90;;;;;;473666;246;28091;-70
2022/04/21 10:24:13;;;;;;;4.40;3.40;;;12.00;99.90;;;;;;475987;246;28565;-71
2022/04/21 10:26:14;;;;;;;4.97;3.47;;;12.20;99.90;;;;;;476983;246;28177;-67
2022/04/21 10:28:15;;;;;;;4.13;3.57;;;12.10;99.90;;;;;;471471;246;28429;-71
2022/04/21 10:30:19;;;;;;;3.20;2.90;;;12.10;99.90;;;;;;471540;246;28880;-71
2022/04/21 10:32:18;;;;;;;3.40;3.07;;;12.30;99.90;;;;;;475646;246;28902;-70
2022/04/21 10:34:19;;;;;;;4.20;3.30;;;12.20;99.90;;;;;;479023;246;28908;-72
2022/04/21 10:36:21;;;;;;;3.70;2.80;;;12.30;99.90;;;;;;474929;246;29916;-71
2022/04/21 10:38:23;;;;;;;4.20;3.57;;;12.40;99.90;;;;;;477053;246;28734;-69
2022/04/21 10:40:23;;;;;;;3.67;3.37;;;12.50;99.90;;;;;;471636;246;28228;-71
2022/04/21 10:42:24;;;;;;;3.50;3.20;;;12.40;99.90;;;;;;471615;246;28941;-70
2022/04/21 10:44:26;;;;;;;4.20;3.33;;;12.40;99.90;;;;;;472786;246;28216;-69
2022/04/21 10:46:29;;;;;;;3.43;3.23;;;12.50;99.90;;;;;;474671;246;28205;-70
2022/04/21 10:48:28;;;;;;;10.57;4.13;;;12.40;99.90;;;;;;475019;246;28262;-69
2022/04/21 10:50:29;;;;;;;3.43;3.23;;;12.20;99.90;;;;;;475069;246;28245;-69
2022/04/21 10:59:11;;;;;;;4.10;3.13;;;12.90;99.90;;;;;;475436;244;29099;-69
2022/04/21 11:01:12;;;;;;;3.20;2.90;;;13.20;99.90;;;;;;477189;246;28964;-71
2022/04/21 11:03:14;;;;;;;3.40;3.10;;;13.30;99.90;;;;;;474188;246;28215;-71
2022/04/21 11:05:14;;;;;;;2.97;2.77;;;13.50;99.90;;;;;;473982;246;28357;-70
2022/04/21 11:07:16;;;;;;;2.90;2.70;;;13.50;99.90;;;;;;475196;246;28521;-75
2022/04/21 11:09:17;;;;;;;2.73;2.60;;;13.50;99.90;;;;;;478708;246;28371;-73
2022/04/21 11:11:18;;;;;;;2.70;2.50;;;13.70;99.90;;;;;;478436;246;28856;-71
2022/04/21 11:13:19;;;;;;;2.40;2.20;;;13.70;99.90;;;;;;478526;246;28469;-74
2022/04/21 11:15:21;;;;;;;3.37;3.07;;;13.60;99.90;;;;;;477857;246;28413;-72
2022/04/21 11:17:22;;;;;;;2.93;2.73;;;13.40;99.90;;;;;;473671;246;28858;-71
2022/04/21 11:19:23;;;;;;;3.17;2.97;;;13.20;99.90;;;;;;472882;246;28971;-70
2022/04/21 11:21:28;;;;;;;3.23;3.03;;;13.30;99.90;;;;;;474384;246;29405;-71
2022/04/21 11:23:26;;;;;;;4.43;2.97;;;13.30;99.90;;;;;;480138;246;29324;-74
2022/04/21 11:25:27;;;;;;;2.73;2.53;;;13.40;99.90;;;;;;477096;246;29299;-70